Time;durP1;ratioP1;P1;durP2;ratioP2;P2;SDS_P1;SDS_P2;PMS_P1;PMS_P2;Temp;Humidity;BMP_temperature;BMP_pressure;BME280_temperature;BME280_humidity;BME280_pressure;Samples;Min_cycle;Max_cycle;Signal;HPM_P1;HPM_P2
2023/04/04 00:00:42;;;;;;;3.97;1.73;;;;;;;-145.69;99.49;52559.25;5072433;28;20203;-79
2023/04/04 00:03:08;;;;;;;5.57;1.97;;;;;;;-145.69;100.00;52590.94;5072776;28;20272;-80
2023/04/04 00:05:35;;;;;;;5.93;2.13;;;;;;;-145.69;100.00;52553.31;5072515;28;20207;-80
2023/04/04 00:08:02;;;;;;;3.07;2.00;;;;;;;-145.69;100.00;52541.44;5072685;28;20199;-79
2023/04/04 00:10:29;;;;;;;4.17;1.97;;;;;;;-145.69;100.00;52551.31;5072793;28;20666;-80
2023/04/04 00:12:55;;;;;;;4.43;2.00;;;;;;;-145.69;99.85;52535.47;5072656;28;20688;-80
2023/04/04 00:15:22;;;;;;;7.20;2.20;;;;;;;-145.69;100.00;52539.44;5072918;28;20198;-79
2023/04/04 00:17:48;;;;;;;8.00;2.10;;;;;;;-145.69;98.86;52539.44;5072192;28;20198;-80
2023/04/04 00:20:15;;;;;;;2.63;2.03;;;;;;;-145.69;97.44;52547.38;5072468;28;20228;-79
2023/04/04 00:22:42;;;;;;;6.40;2.17;;;;;;;-145.69;98.03;52547.38;5072341;28;20234;-79
2023/04/04 00:25:10;;;;;;;4.33;2.13;;;;;;;-145.69;97.66;52559.25;5075730;28;20202;-79
2023/04/04 00:27:36;;;;;;;5.87;2.60;;;;;;;-145.69;95.42;52586.97;5073343;28;20550;-79
2023/04/04 00:30:03;;;;;;;4.37;2.50;;;;;;;-145.69;95.13;52535.47;5076327;28;20561;-78
2023/04/04 00:32:30;;;;;;;4.33;1.90;;;;;;;-145.69;95.29;52531.53;5076494;28;20209;-79
2023/04/04 00:34:56;;;;;;;6.77;2.20;;;;;;;-145.69;95.67;52565.19;5075222;28;20297;-79
2023/04/04 00:37:23;;;;;;;4.70;2.30;;;;;;;-145.69;94.34;52561.22;5076419;28;20229;-79
2023/04/04 00:39:50;;;;;;;4.70;2.40;;;;;;;-145.69;94.03;52537.47;5076616;28;20202;-80
2023/04/04 00:42:17;;;;;;;4.70;2.03;;;;;;;-145.69;95.80;52543.41;5076285;28;20333;-79
2023/04/04 00:44:44;;;;;;;4.67;2.00;;;;;;;-145.69;93.30;52523.59;5076596;28;20206;-79
2023/04/04 00:47:11;;;;;;;4.13;2.00;;;;;;;-145.69;92.36;52571.13;5076169;28;20207;-79
2023/04/04 00:49:37;;;;;;;4.93;2.07;;;;;;;-145.69;91.03;52549.34;5075772;28;20186;-79
2023/04/04 00:52:05;;;;;;;3.87;2.30;;;;;;;-145.69;91.57;52563.22;5075948;28;20202;-79
2023/04/04 00:54:32;;;;;;;3.40;2.17;;;;;;;-145.69;89.06;52567.16;5076057;28;20222;-79
2023/04/04 00:57:00;;;;;;;4.37;2.27;;;;;;;-145.69;90.57;52541.44;5075955;28;20195;-79
2023/04/04 00:59:28;;;;;;;2.27;2.00;;;;;;;-145.69;90.02;52559.25;5075767;28;20203;-79
2023/04/04 01:01:55;;;;;;;4.60;2.20;;;;;;;-145.69;90.36;52590.94;5075990;28;20261;-79
2023/04/04 01:04:22;;;;;;;4.83;2.10;;;;;;;-145.69;89.63;52571.13;5075792;28;20695;-79
2023/04/04 01:06:49;;;;;;;4.30;1.97;;;;;;;-145.69;90.69;52543.41;5076073;28;20195;-79
2023/04/04 01:09:15;;;;;;;5.87;2.40;;;;;;;-145.69;89.92;52569.16;5076019;28;20206;-79
2023/04/04 01:11:43;;;;;;;5.43;2.27;;;;;;;-145.69;89.39;52511.72;5075189;28;20672;-79
2023/04/04 01:14:10;;;;;;;4.67;2.23;;;;;;;-145.69;89.46;52551.31;5075537;28;20206;-79
2023/04/04 01:16:38;;;;;;;3.87;2.37;;;;;;;-145.69;90.30;52559.25;5074383;28;20688;-79
2023/04/04 01:19:09;;;;;;;5.37;2.03;;;;;;;-145.69;92.86;52541.44;5074957;28;20195;-78
2023/04/04 01:21:37;;;;;;;5.80;2.30;;;;;;;-145.69;91.84;52559.25;5075062;28;20653;-80
2023/04/04 01:24:04;;;;;;;4.20;2.40;;;;;;;-145.69;91.97;52547.38;5075750;28;20203;-79
2023/04/04 01:26:32;;;;;;;7.70;2.10;;;;;;;-145.69;91.28;52569.16;5075447;28;20202;-78
2023/04/04 01:28:59;;;;;;;6.33;2.00;;;;;;;-145.69;92.07;52563.22;5075356;28;20202;-79
2023/04/04 01:31:28;;;;;;;6.07;2.03;;;;;;;-145.69;90.73;52563.22;5075457;28;20202;-79
2023/04/04 01:34:03;;;;;;;4.17;2.00;;;;;;;-145.69;92.21;52590.94;5075487;28;20688;-78
2023/04/04 01:36:35;;;;;;;5.83;2.07;;;;;;;-145.69;91.34;52521.63;5074481;28;20198;-81
2023/04/04 01:39:09;;;;;;;4.20;2.10;;;;;;;-145.69;92.37;52551.31;5075495;28;20199;-81
2023/04/04 01:41:39;;;;;;;5.63;2.27;;;;;;;-145.69;94.57;52537.47;5074918;28;20195;-81
2023/04/04 01:44:06;;;;;;;4.73;1.83;;;;;;;-145.69;94.60;52590.94;5075210;28;20570;-79
2023/04/04 01:46:35;;;;;;;4.67;1.90;;;;;;;-145.69;93.94;52545.38;5075160;28;20245;-81
2023/04/04 01:49:02;;;;;;;4.73;2.30;;;;;;;-145.69;94.12;52583.00;5075029;28;20588;-82
2023/04/04 01:51:30;;;;;;;5.30;2.50;;;;;;;-145.69;94.37;52551.31;5074932;28;20187;-78
2023/04/04 01:53:57;;;;;;;4.97;2.03;;;;;;;-145.69;95.75;52539.44;5074759;28;20293;-79
2023/04/04 01:56:23;;;;;;;5.97;2.33;;;;;;;-145.69;95.65;52559.25;5074896;28;20552;-79
2023/04/04 01:58:52;;;;;;;7.10;2.20;;;;;;;-145.69;95.20;52541.44;5074846;28;20199;-79
2023/04/04 02:01:19;;;;;;;5.53;2.50;;;;;;;-145.69;97.02;52563.22;5074965;28;20605;-79
2023/04/04 02:03:46;;;;;;;4.07;2.30;;;;;;;-145.69;97.11;52602.81;5074676;28;20622;-81
2023/04/04 02:06:12;;;;;;;3.77;2.00;;;;;;;-145.69;97.20;52541.44;5074799;28;20198;-79
2023/04/04 02:08:39;;;;;;;4.60;2.13;;;;;;;-145.69;96.11;52559.25;5074482;28;20202;-79
2023/04/04 02:11:05;;;;;;;4.17;2.03;;;;;;;-145.69;96.51;52515.69;5074562;28;20274;-79
2023/04/04 02:13:32;;;;;;;3.33;2.00;;;;;;;-145.69;96.89;52545.38;5074037;28;20578;-81
2023/04/04 02:16:00;;;;;;;5.60;2.00;;;;;;;-145.69;98.48;52575.09;5074497;28;20195;-78
2023/04/04 02:18:26;;;;;;;4.67;2.27;;;;;;;-145.69;98.12;52586.97;5074840;28;20194;-82
2023/04/04 02:20:56;;;;;;;3.37;2.37;;;;;;;-145.69;98.91;52547.38;5074539;28;20195;-81
2023/04/04 02:23:22;;;;;;;3.53;1.90;;;;;;;-145.69;98.37;52583.00;5074280;28;20681;-79
2023/04/04 02:25:50;;;;;;;5.50;2.00;;;;;;;-145.69;99.41;52573.13;5074506;28;20199;-78
2023/04/04 02:28:17;;;;;;;5.87;2.47;;;;;;;-145.69;98.41;52577.06;5072518;28;20210;-81
2023/04/04 02:30:43;;;;;;;5.50;2.30;;;;;;;-145.69;99.96;52555.28;5072245;28;20561;-79
2023/04/04 02:33:11;;;;;;;7.37;2.20;;;;;;;-145.69;99.09;52547.38;5074220;28;20573;-78
2023/04/04 02:35:37;;;;;;;5.93;2.00;;;;;;;-145.69;99.73;52541.44;5074207;28;20210;-78
2023/04/04 02:38:04;;;;;;;8.50;2.20;;;;;;;-145.69;100.00;52579.06;5074113;28;20199;-80
2023/04/04 02:40:30;;;;;;;7.77;2.20;;;;;;;-145.69;100.00;52535.47;5073850;28;20199;-78
2023/04/04 02:42:57;;;;;;;5.13;2.23;;;;;;;-145.69;100.00;52527.56;5073541;28;20601;-78
2023/04/04 02:45:23;;;;;;;9.30;2.43;;;;;;;-145.69;100.00;52551.31;5074283;28;20198;-78
2023/04/04 02:47:50;;;;;;;9.53;2.00;;;;;;;-145.69;100.00;52545.38;5073458;28;20194;-78
2023/04/04 02:50:18;;;;;;;6.00;2.33;;;;;;;-145.69;100.00;52557.28;5073904;28;20203;-77
2023/04/04 02:52:45;;;;;;;7.93;2.50;;;;;;;-145.69;100.00;52557.28;5073445;28;20195;-78
2023/04/04 02:55:12;;;;;;;3.90;1.87;;;;;;;-145.69;100.00;52563.22;5073831;28;20221;-81
2023/04/04 02:57:39;;;;;;;4.63;1.80;;;;;;;-145.69;100.00;52531.53;5073668;28;20194;-79
2023/04/04 03:00:07;;;;;;;4.50;2.00;;;;;;;-145.69;100.00;52543.41;5073766;28;20198;-80
2023/04/04 03:02:33;;;;;;;4.07;2.23;;;;;;;-145.69;100.00;52529.53;5073626;28;20227;-79
2023/04/04 03:05:00;;;;;;;3.07;1.90;;;;;;;-145.69;100.00;52527.56;5073518;28;20214;-79
2023/04/04 03:07:28;;;;;;;10.00;2.40;;;;;;;-145.69;100.00;52563.22;5073907;28;20198;-78
2023/04/04 03:09:54;;;;;;;2.73;1.97;;;;;;;-145.69;100.00;52515.69;5073763;28;20199;-79
2023/04/04 03:12:21;;;;;;;3.77;2.07;;;;;;;-145.69;100.00;52545.38;5073435;28;20214;-78
2023/04/04 03:14:48;;;;;;;5.07;2.47;;;;;;;-145.69;100.00;52541.44;5073336;28;20195;-78
2023/04/04 03:17:16;;;;;;;3.30;1.80;;;;;;;-145.69;100.00;52588.97;5073022;28;20661;-78
2023/04/04 03:19:43;;;;;;;8.03;2.67;;;;;;;-145.69;100.00;52569.16;5073342;28;20289;-78
2023/04/04 03:22:09;;;;;;;5.43;2.20;;;;;;;-145.69;100.00;52541.44;5073261;28;20199;-78
2023/04/04 03:24:37;;;;;;;9.40;2.73;;;;;;;-145.69;100.00;52563.22;5073536;28;20198;-79
2023/04/04 03:27:04;;;;;;;5.30;2.30;;;;;;;-145.69;100.00;52541.44;5073377;28;20210;-81
2023/04/04 03:29:31;;;;;;;2.90;1.73;;;;;;;-145.69;100.00;52539.44;5073142;28;20203;-78
2023/04/04 03:31:57;;;;;;;6.47;2.23;;;;;;;-145.69;100.00;52553.31;5073216;28;20299;-77
2023/04/04 03:34:26;;;;;;;4.73;2.13;;;;;;;-145.69;100.00;52553.31;5073446;28;20211;-80
2023/04/04 03:36:52;;;;;;;5.97;2.10;;;;;;;-145.69;100.00;52565.19;5073474;28;20211;-78
2023/04/04 03:39:19;;;;;;;6.47;2.10;;;;;;;-145.69;100.00;52559.25;5072608;28;20234;-78
2023/04/04 03:41:47;;;;;;;2.87;1.83;;;;;;;-145.69;100.00;52535.47;5072616;28;20762;-78
2023/04/04 03:44:14;;;;;;;6.60;2.37;;;;;;;-145.69;100.00;52561.22;5073007;28;20284;-78
2023/04/04 03:46:40;;;;;;;5.03;1.97;;;;;;;-145.69;100.00;52569.16;5072613;28;20252;-78
2023/04/04 03:49:07;;;;;;;5.30;2.10;;;;;;;-145.69;100.00;52590.94;5073087;28;20203;-78
2023/04/04 03:51:33;;;;;;;2.70;1.80;;;;;;;-145.69;100.00;52535.47;5073081;28;20585;-78
2023/04/04 03:54:00;;;;;;;4.70;2.37;;;;;;;-145.69;100.00;52517.66;5072779;28;20203;-77
2023/04/04 03:56:26;;;;;;;6.80;2.57;;;;;;;-145.69;100.00;52569.16;5073048;28;20199;-78
2023/04/04 03:58:55;;;;;;;3.63;2.00;;;;;;;-145.69;100.00;52551.31;5072167;28;20202;-78
2023/04/04 04:01:22;;;;;;;4.53;2.30;;;;;;;-145.69;100.00;52571.13;5072677;28;20206;-77
2023/04/04 04:03:48;;;;;;;11.90;2.57;;;;;;;-145.69;100.00;52590.94;5072938;28;20600;-77
2023/04/04 04:06:14;;;;;;;5.70;2.20;;;;;;;-145.69;100.00;52543.41;5072552;28;20213;-78
2023/04/04 04:08:41;;;;;;;5.97;2.00;;;;;;;-145.69;100.00;52583.00;5072398;28;20653;-80
2023/04/04 04:11:08;;;;;;;13.17;2.63;;;;;;;-145.69;100.00;52563.22;5072241;28;20225;-78
2023/04/04 04:13:34;;;;;;;5.57;2.40;;;;;;;-145.69;100.00;52549.34;5071796;28;21679;-77
2023/04/04 04:16:02;;;;;;;4.37;2.20;;;;;;;-145.69;100.00;52527.56;5072404;28;20202;-77
2023/04/04 04:18:29;;;;;;;4.30;2.40;;;;;;;-145.69;100.00;52577.06;5071688;28;20194;-78
2023/04/04 04:20:58;;;;;;;3.67;1.63;;;;;;;-145.69;100.00;52547.38;5071889;28;20616;-78
2023/04/04 04:23:24;;;;;;;4.73;1.90;;;;;;;-145.69;100.00;52573.13;5071530;28;20276;-78
2023/04/04 04:25:51;;;;;;;3.67;1.80;;;;;;;-145.69;100.00;52581.03;5071829;28;20573;-77
2023/04/04 04:28:17;;;;;;;6.50;2.00;;;;;;;-145.69;100.00;52547.38;5070180;28;20214;-77
2023/04/04 04:30:45;;;;;;;5.10;2.23;;;;;;;-145.69;100.00;52521.63;5072263;28;20194;-77
2023/04/04 04:33:12;;;;;;;6.50;2.07;;;;;;;-145.69;100.00;52555.28;5072664;28;20550;-78
2023/04/04 04:35:39;;;;;;;4.83;2.43;;;;;;;-145.69;100.00;52549.34;5071840;28;20194;-78
2023/04/04 04:38:06;;;;;;;10.23;2.63;;;;;;;-145.69;100.00;52555.28;5072279;28;20195;-80
2023/04/04 04:40:33;;;;;;;4.37;2.00;;;;;;;-145.69;100.00;52543.41;5072341;28;20227;-79
2023/04/04 04:42:59;;;;;;;4.37;2.10;;;;;;;-145.69;100.00;52551.31;5071723;28;20269;-78
2023/04/04 04:45:26;;;;;;;4.57;2.30;;;;;;;-145.69;100.00;52515.69;5072309;28;20752;-78
2023/04/04 04:47:53;;;;;;;10.83;2.33;;;;;;;-145.69;100.00;52545.38;5072247;28;20584;-78
2023/04/04 04:50:21;;;;;;;5.70;2.23;;;;;;;-145.69;100.00;52585.00;5072431;28;20207;-78
2023/04/04 04:52:50;;;;;;;4.20;2.20;;;;;;;-145.69;100.00;52561.22;5072167;28;20619;-79
2023/04/04 04:55:17;;;;;;;8.37;2.37;;;;;;;-145.69;100.00;52547.38;5072027;28;20199;-78
2023/04/04 04:57:43;;;;;;;3.73;2.17;;;;;;;-145.69;100.00;52545.38;5072344;28;20233;-78
2023/04/04 05:00:11;;;;;;;5.33;2.13;;;;;;;-145.69;100.00;52559.25;5072467;28;20210;-78
2023/04/04 05:02:37;;;;;;;7.05;2.58;;;;;;;-145.69;100.00;52586.97;5071986;28;20438;-79
2023/04/04 05:05:05;;;;;;;6.00;2.33;;;;;;;-145.69;100.00;52573.13;5072363;28;20199;-79
2023/04/04 05:07:33;;;;;;;5.87;2.07;;;;;;;-145.69;100.00;52594.91;5071720;28;20191;-79
2023/04/04 05:09:59;;;;;;;6.67;1.93;;;;;;;-145.69;100.00;52545.38;5073084;28;20207;-79
2023/04/04 05:12:26;;;;;;;3.97;2.13;;;;;;;-145.69;100.00;52559.25;5075722;28;20237;-79
2023/04/04 05:14:52;;;;;;;4.37;2.33;;;;;;;-145.69;100.00;52577.06;5075937;28;20203;-79
2023/04/04 05:17:21;;;;;;;10.67;2.53;;;;;;;-145.69;100.00;52602.81;5075777;28;20199;-78
2023/04/04 05:19:47;;;;;;;4.37;2.23;;;;;;;-145.69;100.00;52567.16;5075463;28;20314;-79
2023/04/04 05:22:14;;;;;;;5.80;2.13;;;;;;;-145.69;100.00;52547.38;5075586;28;20686;-78
2023/04/04 05:24:42;;;;;;;5.37;2.33;;;;;;;-145.69;100.00;52563.22;5074919;28;20226;-79
2023/04/04 05:27:08;;;;;;;8.50;2.27;;;;;;;-145.69;100.00;52531.53;5075400;28;20252;-79
2023/04/04 05:29:34;;;;;;;7.20;1.80;;;;;;;-145.69;100.00;52557.28;5075222;28;20206;-78
2023/04/04 05:32:01;;;;;;;4.40;2.13;;;;;;;-145.69;100.00;52541.44;5075468;28;20203;-78
2023/04/04 05:34:27;;;;;;;6.00;2.10;;;;;;;-145.69;100.00;52585.00;5075500;28;20203;-78
2023/04/04 05:36:54;;;;;;;5.40;2.20;;;;;;;-145.69;100.00;52577.06;5074182;28;20202;-78
2023/04/04 05:39:20;;;;;;;3.47;1.87;;;;;;;-145.69;100.00;52533.50;5075345;28;20206;-79
2023/04/04 05:41:48;;;;;;;4.30;2.00;;;;;;;-145.69;100.00;52549.34;5075317;28;20672;-78
2023/04/04 05:44:15;;;;;;;5.13;2.30;;;;;;;-145.69;100.00;52559.25;5074703;28;20700;-78
2023/04/04 05:46:41;;;;;;;3.93;1.87;;;;;;;-145.69;100.00;52569.16;5074869;28;20191;-79
2023/04/04 05:49:08;;;;;;;6.43;2.53;;;;;;;-145.69;100.00;52523.59;5074960;28;20210;-79
2023/04/04 05:51:34;;;;;;;4.87;2.00;;;;;;;-145.69;100.00;52577.06;5075049;28;20202;-79
2023/04/04 05:54:00;;;;;;;8.13;2.20;;;;;;;-145.69;100.00;52543.41;5074981;28;20206;-78
2023/04/04 05:56:27;;;;;;;6.00;2.70;;;;;;;-145.69;100.00;52547.38;5074774;28;20246;-79
2023/04/04 05:58:55;;;;;;;6.73;2.37;;;;;;;-145.69;100.00;52559.25;5074841;28;20199;-78
2023/04/04 06:01:21;;;;;;;7.00;2.57;;;;;;;-145.69;100.00;52571.13;5074829;28;20680;-78
2023/04/04 06:03:48;;;;;;;9.77;2.90;;;;;;;-145.69;100.00;52557.28;5074721;28;20222;-79
2023/04/04 06:06:14;;;;;;;5.77;2.00;;;;;;;-145.69;100.00;52565.19;5074621;28;20199;-79
2023/04/04 06:08:41;;;;;;;8.23;2.20;;;;;;;-145.69;100.00;52577.06;5074744;28;20213;-79
2023/04/04 06:11:07;;;;;;;5.93;2.00;;;;;;;-145.69;99.79;52551.31;5074726;28;20199;-78
2023/04/04 06:13:33;;;;;;;5.77;2.60;;;;;;;-145.69;99.80;52537.47;5074482;28;20665;-78
2023/04/04 06:16:01;;;;;;;5.20;2.20;;;;;;;-145.69;100.00;52577.06;5074203;28;20676;-77
2023/04/04 06:18:28;;;;;;;5.47;2.17;;;;;;;-145.69;100.00;52549.34;5074452;28;20531;-77
2023/04/04 06:20:54;;;;;;;5.67;2.20;;;;;;;-145.69;100.00;52549.34;5074356;28;20199;-78
2023/04/04 06:23:21;;;;;;;3.60;2.00;;;;;;;-145.69;100.00;52545.38;5074093;28;20201;-79
2023/04/04 06:25:48;;;;;;;6.97;1.90;;;;;;;-145.69;100.00;52529.53;5074429;28;20200;-81
2023/04/04 06:28:16;;;;;;;5.37;2.30;;;;;;;-145.69;100.00;52523.59;5074448;28;20199;-81
2023/04/04 06:30:44;;;;;;;3.77;2.43;;;;;;;-145.69;100.00;52569.16;5074319;28;20206;-79
2023/04/04 06:33:11;;;;;;;6.30;2.27;;;;;;;-145.69;99.52;52531.53;5070746;28;20230;-79
2023/04/04 06:35:38;;;;;;;5.20;2.37;;;;;;;-145.69;99.63;52555.28;5054161;28;20200;-79
2023/04/04 06:38:05;;;;;;;5.90;2.20;;;;;;;-145.69;98.47;52579.06;5063716;28;20278;-79
2023/04/04 06:40:31;;;;;;;6.50;2.80;;;;;;;-145.69;99.08;52515.69;5074088;28;20195;-77
2023/04/04 06:42:58;;;;;;;7.03;2.50;;;;;;;-145.69;99.61;52573.13;5073647;28;20227;-79
2023/04/04 06:45:26;;;;;;;5.90;2.10;;;;;;;-145.69;97.93;52563.22;5073993;28;20685;-78
2023/04/04 06:47:53;;;;;;;4.40;2.30;;;;;;;-145.69;97.05;52535.47;5073516;28;20264;-79
2023/04/04 06:50:22;;;;;;;4.73;2.40;;;;;;;-145.69;98.36;52594.91;5074160;28;20225;-79
2023/04/04 06:52:49;;;;;;;10.20;2.00;;;;;;;-145.69;97.27;52545.38;5074183;28;20202;-81
2023/04/04 06:55:15;;;;;;;7.77;2.43;;;;;;;-145.69;97.05;52555.28;5074074;28;20199;-79
2023/04/04 06:57:42;;;;;;;5.50;2.50;;;;;;;-145.69;96.62;52539.44;5073677;28;20210;-79
2023/04/04 07:00:10;;;;;;;4.17;2.23;;;;;;;-145.69;96.43;52543.41;5073683;28;20218;-79
2023/04/04 07:02:36;;;;;;;6.07;2.13;;;;;;;-145.69;95.87;52575.09;5073581;28;20195;-78
2023/04/04 07:05:03;;;;;;;6.30;2.27;;;;;;;-145.69;96.37;52551.31;5073790;28;20233;-79
2023/04/04 07:07:31;;;;;;;5.53;2.50;;;;;;;-145.69;95.42;52531.53;5072805;28;20196;-79
2023/04/04 07:09:57;;;;;;;5.40;2.20;;;;;;;-145.69;93.85;52563.22;5073236;28;20550;-81
2023/04/04 07:12:24;;;;;;;6.87;2.43;;;;;;;-145.69;94.29;52543.41;5073538;28;20204;-79
2023/04/04 07:14:50;;;;;;;6.73;2.63;;;;;;;-145.69;90.74;52547.38;5073441;28;20562;-78
2023/04/04 07:17:17;;;;;;;9.10;2.63;;;;;;;-145.69;93.69;52551.31;5072908;28;20203;-81
2023/04/04 07:19:43;;;;;;;7.80;2.40;;;;;;;-145.69;92.19;52523.59;5073677;28;20634;-79
2023/04/04 07:22:10;;;;;;;5.13;2.70;;;;;;;-145.69;92.63;52531.53;5073673;28;20205;-78
2023/04/04 07:24:37;;;;;;;7.67;2.40;;;;;;;-145.69;92.45;52505.78;5073244;28;20320;-79
2023/04/04 07:27:04;;;;;;;7.07;2.13;;;;;;;-145.69;89.72;52519.63;5073115;28;20210;-79
2023/04/04 07:29:31;;;;;;;4.90;2.30;;;;;;;-145.69;88.87;52571.13;5073160;28;20198;-78
2023/04/04 07:31:57;;;;;;;3.77;2.07;;;;;;;-145.69;87.46;52525.59;5073496;28;20222;-79
2023/04/04 07:34:24;;;;;;;5.53;2.80;;;;;;;-145.69;87.25;52515.69;5072775;28;20202;-78
2023/04/04 07:36:52;;;;;;;4.80;2.40;;;;;;;-145.69;81.56;52511.72;5073728;28;20212;-79
2023/04/04 07:39:19;;;;;;;7.20;2.87;;;;;;;-145.69;80.47;52515.69;5072888;28;20191;-78
2023/04/04 07:41:46;;;;;;;7.57;2.30;;;;;;;-145.69;81.91;52531.53;5073194;28;20565;-79
2023/04/04 07:44:13;;;;;;;3.77;2.00;;;;;;;-145.69;82.63;52543.41;5073001;28;20249;-81
2023/04/04 07:46:39;;;;;;;4.47;2.27;;;;;;;-145.69;83.02;52527.56;5073296;28;20195;-78
2023/04/04 07:49:06;;;;;;;7.40;2.53;;;;;;;-145.69;81.74;52525.59;5073222;28;20203;-76
2023/04/04 07:51:34;;;;;;;6.23;2.60;;;;;;;-145.69;76.87;52535.47;5073247;28;20293;-77
2023/04/04 07:54:01;;;;;;;4.00;2.20;;;;;;;-145.69;78.01;52551.31;5072972;28;20230;-79
2023/04/04 07:56:27;;;;;;;4.33;2.50;;;;;;;-145.69;75.47;52511.72;5072829;28;20194;-79
2023/04/04 07:58:55;;;;;;;6.83;2.77;;;;;;;-145.69;73.90;52531.53;5073466;28;20621;-79
2023/04/04 08:01:22;;;;;;;6.27;2.23;;;;;;;-145.69;72.75;52497.84;5073192;28;20198;-80
2023/04/04 08:03:52;;;;;;;8.43;2.37;;;;;;;-145.69;71.88;52499.84;5072954;28;20203;-79
2023/04/04 08:06:18;;;;;;;7.83;2.60;;;;;;;-145.69;73.06;52484.00;5073077;28;20202;-78
2023/04/04 08:08:45;;;;;;;9.60;2.30;;;;;;;-145.69;71.64;52507.75;5072611;28;20206;-79
2023/04/04 08:11:12;;;;;;;5.50;2.40;;;;;;;-145.69;70.09;52551.31;5072776;28;20199;-80
2023/04/04 08:13:38;;;;;;;4.40;2.47;;;;;;;-145.69;70.60;52543.41;5073983;28;20202;-80
2023/04/04 08:16:07;;;;;;;9.43;2.50;;;;;;;-145.69;67.42;52507.75;5073605;28;20252;-79
2023/04/04 08:18:33;;;;;;;3.80;2.00;;;;;;;-145.69;67.63;52507.75;5072075;28;20249;-79
2023/04/04 08:21:00;;;;;;;3.87;2.10;;;;;;;-145.69;69.51;52495.88;5072726;28;20676;-78
2023/04/04 08:23:28;;;;;;;5.63;2.40;;;;;;;-145.69;63.79;52495.88;5072496;28;20222;-75
2023/04/04 08:25:55;;;;;;;4.03;2.03;;;;;;;-145.69;64.54;52535.47;5072840;28;20222;-77
2023/04/04 08:28:22;;;;;;;3.87;2.10;;;;;;;-145.69;61.52;52511.72;5073236;28;20202;-79
2023/04/04 08:30:48;;;;;;;6.70;1.93;;;;;;;-145.69;62.41;52531.53;5072854;28;20238;-78
2023/04/04 08:33:16;;;;;;;4.67;2.07;;;;;;;-145.69;64.71;52493.91;5072601;28;20657;-80
2023/04/04 08:35:43;;;;;;;6.30;2.20;;;;;;;-145.69;63.21;52539.44;5072544;28;20601;-78
2023/04/04 08:38:09;;;;;;;6.57;2.60;;;;;;;-145.69;64.44;52513.69;5067906;28;20196;-79
2023/04/04 08:40:37;;;;;;;3.30;2.07;;;;;;;-145.69;66.48;52507.75;5052421;28;20207;-77
2023/04/04 08:43:05;;;;;;;5.57;2.50;;;;;;;-145.69;62.49;52499.84;5052367;28;20292;-78
2023/04/04 08:45:33;;;;;;;6.57;2.00;;;;;;;-145.69;58.91;52507.75;5062008;28;20258;-80
2023/04/04 08:48:01;;;;;;;5.90;2.25;;;;;;;-145.69;59.36;52480.03;5075556;28;20441;-78
2023/04/04 08:50:30;;;;;;;4.30;2.33;;;;;;;-145.69;61.18;52517.66;5077015;28;20558;-81
2023/04/04 08:53:00;;;;;;;4.17;2.23;;;;;;;-145.69;63.74;52527.56;5078044;28;20198;-81
2023/04/04 08:55:26;;;;;;;4.57;2.37;;;;;;;-145.69;59.12;52529.53;5077135;28;20226;-81
2023/04/04 08:57:54;;;;;;;5.67;1.93;;;;;;;-145.69;66.41;52519.63;5078063;28;20212;-80
2023/04/04 09:00:21;;;;;;;9.33;2.50;;;;;;;-145.69;58.91;52533.50;5077656;28;20285;-81
2023/04/04 09:02:57;;;;;;;4.77;2.27;;;;;;;-145.69;62.34;52507.75;5077027;28;20191;-80
2023/04/04 09:05:24;;;;;;;7.07;2.27;;;;;;;-145.69;55.13;52539.44;5078252;28;20261;-81
2023/04/04 09:07:53;;;;;;;5.47;2.10;;;;;;;-145.69;53.70;52507.75;5076799;28;20222;-80
2023/04/04 09:10:19;;;;;;;6.07;2.60;;;;;;;-145.69;55.69;52505.78;5077948;28;20198;-80
2023/04/04 09:12:48;;;;;;;3.13;2.00;;;;;;;-145.69;53.58;52531.53;5072098;28;20191;-79
2023/04/04 09:15:15;;;;;;;5.07;2.10;;;;;;;-145.69;55.49;52523.59;5057693;28;20203;-80
2023/04/04 09:17:41;;;;;;;4.17;2.17;;;;;;;-145.69;55.79;52513.69;5055826;28;20238;-79
2023/04/04 09:20:33;;;;;;;5.33;2.23;;;;;;;-145.69;54.94;52480.03;5058314;28;20207;-77
2023/04/04 09:23:01;;;;;;;4.07;1.80;;;;;;;-145.69;54.68;52519.63;5075752;28;20195;-77
2023/04/04 09:25:27;;;;;;;6.07;2.20;;;;;;;-145.69;58.45;52491.91;5075627;28;20238;-78
2023/04/04 09:27:54;;;;;;;4.40;2.20;;;;;;;-145.69;52.31;52525.59;5075394;28;20206;-78
2023/04/04 09:30:21;;;;;;;4.45;2.50;;;;;;;-145.69;55.57;52527.56;5074674;28;20438;-78
2023/04/04 09:32:47;;;;;;;4.30;2.30;;;;;;;-145.69;52.57;52499.84;5075187;28;20191;-79
2023/04/04 09:35:14;;;;;;;3.40;2.03;;;;;;;-145.69;51.02;52515.69;5075727;28;20207;-78
2023/04/04 09:37:42;;;;;;;6.77;2.73;;;;;;;-145.69;55.29;52507.75;5074937;28;20199;-78
2023/04/04 09:40:11;;;;;;;5.23;2.47;;;;;;;-145.69;53.47;52517.66;5073300;28;20199;-79
2023/04/04 09:42:38;;;;;;;7.37;2.27;;;;;;;-145.69;49.34;52519.63;5055245;28;20720;-78
2023/04/04 09:45:08;;;;;;;4.13;2.17;;;;;;;-145.69;51.54;52525.59;5073442;28;20246;-77
2023/04/04 09:47:40;;;;;;;7.40;2.13;;;;;;;-145.69;52.99;52476.06;5075158;28;20637;-78
2023/04/04 09:50:08;;;;;;;5.07;2.20;;;;;;;-145.69;53.21;52525.59;5074738;28;20683;-79
2023/04/04 09:52:34;;;;;;;4.10;2.73;;;;;;;-145.69;49.33;52442.41;5075815;28;20233;-81
2023/04/04 09:55:03;;;;;;;6.53;2.17;;;;;;;-145.69;52.44;52511.72;5075008;28;20806;-80
2023/04/04 09:57:32;;;;;;;7.60;2.00;;;;;;;-145.69;48.62;52487.97;5073823;28;20210;-77
2023/04/04 10:00:00;;;;;;;3.13;1.90;;;;;;;-145.69;47.88;52491.91;5074679;28;20646;-79
2023/04/04 10:02:27;;;;;;;7.70;2.27;;;;;;;-145.69;48.75;52487.97;5074664;28;20203;-79
2023/04/04 10:04:56;;;;;;;4.40;1.73;;;;;;;-145.69;49.25;52511.72;5075026;28;20222;-79
2023/04/04 10:07:22;;;;;;;3.47;1.97;;;;;;;-145.69;46.96;52495.88;5074700;28;20198;-79
2023/04/04 10:09:51;;;;;;;4.97;2.20;;;;;;;-145.69;49.26;52515.69;5074949;28;20207;-79
2023/04/04 10:12:22;;;;;;;9.33;2.30;;;;;;;-145.69;49.96;52493.91;5074464;28;20209;-80
2023/04/04 10:14:56;;;;;;;4.10;2.27;;;;;;;-145.69;47.34;52484.00;5075003;28;20203;-80
2023/04/04 10:17:23;;;;;;;4.37;2.17;;;;;;;-145.69;50.21;52499.84;5074680;28;20219;-79
2023/04/04 10:19:51;;;;;;;5.97;2.20;;;;;;;-145.69;49.96;52517.66;5074550;28;20206;-80
2023/04/04 10:22:21;;;;;;;3.57;2.20;;;;;;;-145.69;46.61;52513.69;5074557;28;20199;-79
2023/04/04 10:24:47;;;;;;;5.07;2.50;;;;;;;-145.69;45.78;52523.59;5073987;28;20313;-79
2023/04/04 10:27:14;;;;;;;6.93;2.23;;;;;;;-145.69;50.29;52487.97;5074433;28;20203;-79
2023/04/04 10:29:40;;;;;;;4.93;2.70;;;;;;;-145.69;50.12;52507.75;5074359;28;20586;-79
2023/04/04 10:32:16;;;;;;;4.50;2.07;;;;;;;-145.69;51.53;52485.97;5074503;28;20206;-79
2023/04/04 10:34:47;;;;;;;2.97;2.10;;;;;;;-145.69;47.72;52507.75;5061308;28;20206;-80
2023/04/04 10:37:20;;;;;;;6.23;2.00;;;;;;;-145.69;45.54;52513.69;5068321;28;20604;-79
2023/04/04 10:39:53;;;;;;;6.37;2.03;;;;;;;-145.69;47.51;52482.00;5074229;28;20213;-79
2023/04/04 10:42:20;;;;;;;6.77;2.30;;;;;;;-145.69;45.83;52511.72;5073673;28;20201;-78
2023/04/04 10:44:47;;;;;;;8.70;2.40;;;;;;;-145.69;46.31;52503.81;5073989;28;20214;-80
2023/04/04 10:47:18;;;;;;;4.53;2.40;;;;;;;-145.69;47.20;52485.97;5073895;28;20213;-79
2023/04/04 10:49:46;;;;;;;4.67;2.40;;;;;;;-145.69;47.07;52493.91;5073744;28;20228;-78
2023/04/04 10:52:14;;;;;;;4.00;2.20;;;;;;;-145.69;46.41;52511.72;5073816;28;20658;-79
2023/04/04 10:54:42;;;;;;;3.97;2.17;;;;;;;-145.69;47.22;52476.06;5073366;28;20286;-77
2023/04/04 10:57:10;;;;;;;3.20;1.90;;;;;;;-145.69;43.94;52466.16;5073760;28;20202;-78
2023/04/04 10:59:56;;;;;;;6.50;2.20;;;;;;;-145.69;44.51;52511.72;5073488;28;20198;-79
2023/04/04 11:02:45;;;;;;;5.90;2.33;;;;;;;-145.69;44.81;52513.69;5073405;28;20325;-79
2023/04/04 11:05:15;;;;;;;5.33;1.97;;;;;;;-145.69;47.37;52464.19;5073396;28;20233;-79
2023/04/04 11:07:42;;;;;;;5.10;2.33;;;;;;;-145.69;45.32;52484.00;5072949;28;20282;-79
2023/04/04 11:10:22;;;;;;;4.90;2.23;;;;;;;-145.69;46.32;52448.34;5073235;28;20207;-79
2023/04/04 11:12:54;;;;;;;4.67;2.07;;;;;;;-145.69;45.67;52436.47;5073371;28;20190;-79
2023/04/04 11:15:21;;;;;;;4.93;2.40;;;;;;;-145.69;45.03;52444.38;5073481;28;20206;-79